Kjevik Flyklubb inviterer Livsglede for Eldre. PDF Skriv ut E-post
Skrevet av Per Norgaard   
mandag 22. mai 2017 10:11

Klubben inviterer for tredje gang Livsglede for Eldre til en aktivitetsdag på Kjevik. Det kommer 80 til 90 eldre med ledsagere som vil se på fly, og høre om vårt småflymiljø. Det blir arrangert tre rundflygninger som er trukket ut blant de eldre. Kaffe, vafler og underholdning blir servert i og rundt hangaren.

Tidspunkt: Onsdag 24. mai kl. 1100 - 1400.

Er det medlemmer som har tid og lyst til å være med, trenger vi  litt hjelp til å organisere parkering og rigge i hangaren. Møt opp kl 1000.

Per

 

Sist oppdatert mandag 22. mai 2017 14:04
 
 
METAR
2017/11/22 15:50 ENCN 221550Z 05009KT 7000 -RASN FEW003 OVC010 01/00 Q0991
TAF
2017/11/22 15:37 TAF ENCN 221400Z 2215/2222 06008KT 8000 -RA OVC012 TEMPO 2215/2221 2000 RADZ BR OVC004 BECMG 2220/2222 20015KT
LN-KFK
Til service
VFR dag
07:42 - 16:44
Brannvakt
Inaktiv
Banner
Banner
Banner
Banner
Banner